createdAt,value
2018-07-06T00:01:13.120Z,10.70
2018-07-06T00:03:53.078Z,11.70
2018-07-06T00:06:34.239Z,11.03
2018-07-06T00:09:14.274Z,10.43
2018-07-06T00:11:54.074Z,11.07
2018-07-06T00:14:33.911Z,10.67
2018-07-06T00:17:13.597Z,11.40
2018-07-06T00:19:53.513Z,11.10
2018-07-06T00:22:33.068Z,10.40
2018-07-06T00:25:12.782Z,11.00
2018-07-06T00:27:52.802Z,10.57
2018-07-06T00:30:32.568Z,10.83
2018-07-06T00:33:12.266Z,11.03
2018-07-06T00:35:52.551Z,11.60
2018-07-06T00:38:32.773Z,11.53
2018-07-06T00:41:12.687Z,12.33
2018-07-06T00:43:52.362Z,13.80
2018-07-06T00:46:32.058Z,13.90
2018-07-06T00:49:12.103Z,13.33
2018-07-06T00:51:51.858Z,14.23
2018-07-06T00:54:31.733Z,15.20
2018-07-06T00:57:11.793Z,16.10
2018-07-06T00:59:51.443Z,14.53
2018-07-06T01:02:31.040Z,15.63
2018-07-06T01:05:11.090Z,15.97
2018-07-06T01:07:50.895Z,14.87
2018-07-06T01:10:31.027Z,15.17
2018-07-06T01:13:11.100Z,15.40
2018-07-06T01:15:50.857Z,13.97
2018-07-06T01:18:30.745Z,14.70
2018-07-06T01:21:10.844Z,14.80
2018-07-06T01:23:50.984Z,15.67
2018-07-06T01:26:30.932Z,14.00
2018-07-06T01:29:11.044Z,14.33
2018-07-06T01:31:51.646Z,14.30
2018-07-06T01:34:32.361Z,13.60
2018-07-06T01:37:12.373Z,13.23
2018-07-06T01:39:52.156Z,13.50
2018-07-06T01:42:31.911Z,12.57
2018-07-06T01:45:11.952Z,13.13
2018-07-06T01:47:51.715Z,12.30
2018-07-06T01:50:31.790Z,12.57
2018-07-06T01:53:11.699Z,11.73
2018-07-06T01:55:51.525Z,11.10
2018-07-06T01:58:31.542Z,11.17
2018-07-06T02:01:11.366Z,11.97
2018-07-06T02:03:51.370Z,11.67
2018-07-06T02:06:31.269Z,11.93
2018-07-06T02:09:11.114Z,11.03
2018-07-06T02:11:51.039Z,10.73
2018-07-06T02:14:31.379Z,10.27
2018-07-06T02:17:11.222Z,11.13
2018-07-06T02:19:50.931Z,10.67
2018-07-06T02:22:30.895Z,10.50
2018-07-06T02:25:11.263Z,10.20
2018-07-06T02:27:50.982Z,10.57
2018-07-06T02:30:30.811Z,10.60
2018-07-06T02:33:10.563Z,10.40
2018-07-06T02:35:50.528Z,10.57
2018-07-06T02:38:30.414Z,10.13
2018-07-06T02:41:10.011Z,10.40
2018-07-06T02:43:49.828Z,10.60
2018-07-06T02:46:29.762Z,10.77
2018-07-06T02:49:09.702Z,10.40
2018-07-06T02:51:49.702Z,10.60
2018-07-06T02:54:29.442Z,10.87
2018-07-06T02:57:09.835Z,10.00
2018-07-06T02:59:49.961Z,10.13
2018-07-06T03:02:29.642Z,10.70
2018-07-06T03:05:09.641Z,10.37
2018-07-06T03:07:49.790Z,9.30
2018-07-06T03:10:29.466Z,10.43
2018-07-06T03:13:10.242Z,10.03
2018-07-06T03:15:50.114Z,9.80
2018-07-06T03:18:30.583Z,10.40
2018-07-06T03:21:10.570Z,11.23
2018-07-06T03:23:50.492Z,10.47
2018-07-06T03:26:30.478Z,11.00
2018-07-06T03:29:12.296Z,11.33
2018-07-06T03:31:52.386Z,10.13
2018-07-06T03:34:32.108Z,9.93
2018-07-06T03:37:12.274Z,10.00
2018-07-06T03:39:52.343Z,10.43
2018-07-06T03:42:33.162Z,10.73
2018-07-06T03:45:12.862Z,10.07
2018-07-06T03:47:52.617Z,10.57
2018-07-06T03:50:32.334Z,10.13
2018-07-06T03:53:12.190Z,9.90
2018-07-06T03:55:52.190Z,9.67
2018-07-06T03:58:31.873Z,9.67
2018-07-06T04:01:12.275Z,9.30
2018-07-06T04:03:53.247Z,9.03
2018-07-06T04:06:27.424Z,9.80
2018-07-06T04:09:07.170Z,9.77
2018-07-06T04:11:46.940Z,10.30
2018-07-06T04:14:28.302Z,10.80
2018-07-06T04:17:08.050Z,10.87
2018-07-06T04:19:48.105Z,11.43
2018-07-06T04:22:27.902Z,10.50
2018-07-06T04:25:07.531Z,11.03
2018-07-06T04:27:48.051Z,11.10
2018-07-06T04:30:28.886Z,10.87
2018-07-06T04:33:08.807Z,10.67
2018-07-06T04:35:48.606Z,11.20
2018-07-06T04:38:28.474Z,11.03
2018-07-06T04:41:08.962Z,10.60
2018-07-06T04:43:48.830Z,10.47
2018-07-06T04:46:28.682Z,10.10
2018-07-06T04:49:08.924Z,10.63
2018-07-06T04:51:48.639Z,10.30
2018-07-06T04:54:29.190Z,8.57
2018-07-06T04:57:09.469Z,8.53
2018-07-06T04:59:49.408Z,7.87
2018-07-06T05:02:29.670Z,7.60
2018-07-06T05:05:09.736Z,7.60
2018-07-06T05:07:49.580Z,8.37
2018-07-06T05:10:29.846Z,8.40
2018-07-06T05:13:09.854Z,7.90
2018-07-06T05:15:49.519Z,8.83
2018-07-06T05:18:30.408Z,8.00
2018-07-06T05:21:09.925Z,6.83
2018-07-06T05:23:50.506Z,7.27
2018-07-06T05:26:30.166Z,6.90
2018-07-06T05:29:09.948Z,6.47
2018-07-06T05:31:49.689Z,5.70
2018-07-06T05:34:29.885Z,6.00
2018-07-06T05:37:09.778Z,6.27
2018-07-06T05:39:49.549Z,6.73
2018-07-06T05:42:29.382Z,6.03
2018-07-06T05:45:09.023Z,5.97
2018-07-06T05:47:48.697Z,5.67
2018-07-06T05:50:29.006Z,6.20
2018-07-06T05:53:09.100Z,6.67
2018-07-06T05:55:48.586Z,7.07
2018-07-06T05:58:28.266Z,7.40
2018-07-06T06:01:08.418Z,7.90
2018-07-06T06:03:48.117Z,7.77
2018-07-06T06:06:27.794Z,8.37
2018-07-06T06:08:55.027Z,8.13
2018-07-06T06:11:23.312Z,7.87
2018-07-06T06:13:51.606Z,7.90
2018-07-06T06:16:19.979Z,8.53
2018-07-06T06:18:48.476Z,8.73
2018-07-06T06:21:20.908Z,8.90
2018-07-06T06:23:50.110Z,8.93
2018-07-06T06:26:25.123Z,8.60
2018-07-06T06:28:56.924Z,8.80
2018-07-06T06:31:26.041Z,8.70
2018-07-06T06:33:54.634Z,8.70
2018-07-06T06:36:23.789Z,9.17
2018-07-06T06:38:52.862Z,8.87
2018-07-06T06:41:24.272Z,8.00
2018-07-06T06:43:52.900Z,7.67
2018-07-06T06:46:21.617Z,7.20
2018-07-06T06:48:51.330Z,7.60
2018-07-06T06:51:19.599Z,7.90
2018-07-06T06:53:48.979Z,7.70
2018-07-06T06:56:17.913Z,6.43
2018-07-06T06:58:47.730Z,6.60
2018-07-06T07:01:16.581Z,6.17
2018-07-06T07:03:44.942Z,5.23
2018-07-06T07:06:13.812Z,4.80
2018-07-06T07:08:42.106Z,4.40
2018-07-06T07:11:10.438Z,4.63
2018-07-06T07:13:39.142Z,4.73
2018-07-06T07:16:08.962Z,4.50
2018-07-06T07:18:37.341Z,4.90
2018-07-06T07:21:05.696Z,4.60
2018-07-06T07:23:34.008Z,4.23
2018-07-06T07:26:05.346Z,4.63
2018-07-06T07:28:34.019Z,3.70
2018-07-06T07:31:02.310Z,3.73
2018-07-06T07:33:30.792Z,3.80
2018-07-06T07:35:59.312Z,3.70
2018-07-06T07:38:30.101Z,3.57
2018-07-06T07:40:59.046Z,3.90
2018-07-06T07:43:27.987Z,3.60
2018-07-06T07:45:59.758Z,3.90
2018-07-06T07:48:29.616Z,3.27
2018-07-06T07:51:09.533Z,3.20
2018-07-06T07:53:49.380Z,3.60
2018-07-06T07:56:18.471Z,3.50
2018-07-06T07:58:51.150Z,3.07
2018-07-06T08:01:19.746Z,3.23
2018-07-06T08:03:51.764Z,3.30
2018-07-06T08:06:23.331Z,3.27
2018-07-06T08:08:52.126Z,3.67
2018-07-06T08:11:22.174Z,3.40
2018-07-06T08:13:51.626Z,2.80
2018-07-06T08:16:21.813Z,3.17
2018-07-06T08:18:53.496Z,2.83
2018-07-06T08:21:21.977Z,2.90
2018-07-06T08:23:52.066Z,2.93
2018-07-06T08:26:20.723Z,3.03
2018-07-06T08:28:49.110Z,3.07
2018-07-06T08:31:17.378Z,2.63
2018-07-06T08:33:55.372Z,2.67
2018-07-06T08:37:43.653Z,2.50
2018-07-06T08:40:12.244Z,3.10
2018-07-06T08:42:41.578Z,2.50
2018-07-06T08:45:10.238Z,2.67
2018-07-06T08:47:38.509Z,2.80
2018-07-06T08:50:08.452Z,2.65
2018-07-06T08:52:38.298Z,2.90
2018-07-06T08:55:06.938Z,2.42
2018-07-06T08:57:38.345Z,2.65
2018-07-06T09:00:15.153Z,2.72
2018-07-06T09:02:45.755Z,3.00
2018-07-06T09:05:14.678Z,2.70
2018-07-06T09:07:43.334Z,2.40
2018-07-06T09:10:12.660Z,3.05
2018-07-06T09:12:41.527Z,2.70
2018-07-06T09:15:10.020Z,2.77
2018-07-06T09:17:39.302Z,2.70
2018-07-06T09:20:07.759Z,2.50
2018-07-06T09:22:37.678Z,2.22
2018-07-06T09:25:07.862Z,2.40
2018-07-06T09:27:36.758Z,2.65
2018-07-06T09:30:05.902Z,2.20
2018-07-06T09:32:35.053Z,2.10
2018-07-06T09:35:03.954Z,2.40
2018-07-06T09:37:36.562Z,2.40
2018-07-06T09:40:05.565Z,2.60
2018-07-06T09:42:34.497Z,2.40
2018-07-06T09:45:03.858Z,2.72
2018-07-06T09:47:32.568Z,2.50
2018-07-06T09:50:02.447Z,2.70
2018-07-06T09:52:31.560Z,2.90
2018-07-06T09:54:59.981Z,2.97
2018-07-06T09:57:30.367Z,3.03
2018-07-06T09:59:59.813Z,3.03
2018-07-06T10:02:28.918Z,2.90
2018-07-06T10:05:00.306Z,2.57
2018-07-06T10:07:29.682Z,4.53
2018-07-06T10:10:04.250Z,2.67
2018-07-06T10:12:33.505Z,2.70
2018-07-06T10:15:03.944Z,2.60
2018-07-06T10:17:33.323Z,2.70
2018-07-06T10:20:03.011Z,3.07
2018-07-06T10:22:31.723Z,3.00
2018-07-06T10:25:01.521Z,2.60
2018-07-06T10:27:38.779Z,2.33
2018-07-06T10:30:16.226Z,2.80
2018-07-06T10:32:44.516Z,2.52
2018-07-06T10:35:12.804Z,2.73
2018-07-06T10:37:41.173Z,2.50
2018-07-06T10:40:09.539Z,2.70
2018-07-06T10:42:38.624Z,3.00
2018-07-06T10:45:07.413Z,2.60
2018-07-06T10:47:35.865Z,2.80
2018-07-06T10:50:04.200Z,2.80
2018-07-06T10:52:33.002Z,2.57
2018-07-06T10:55:01.275Z,2.57
2018-07-06T10:57:30.146Z,2.67
2018-07-06T10:59:59.458Z,2.80
2018-07-06T11:02:27.754Z,2.60
2018-07-06T11:04:56.121Z,2.57
2018-07-06T11:07:25.271Z,2.60
2018-07-06T11:09:53.697Z,2.90
2018-07-06T11:12:22.099Z,3.23
2018-07-06T11:14:50.484Z,2.70
2018-07-06T11:17:18.861Z,3.00
2018-07-06T11:19:47.266Z,2.80
2018-07-06T11:22:15.570Z,2.90
2018-07-06T11:24:43.953Z,3.07
2018-07-06T11:27:13.589Z,2.70
2018-07-06T11:29:43.459Z,2.87
2018-07-06T11:32:11.510Z,2.90
2018-07-06T11:34:40.027Z,2.90
2018-07-06T11:37:10.353Z,3.00
2018-07-06T11:39:38.834Z,3.10
2018-07-06T11:42:08.638Z,2.77
2018-07-06T11:44:38.136Z,2.70
2018-07-06T11:47:07.321Z,2.87
2018-07-06T11:49:36.858Z,3.03
2018-07-06T11:52:07.425Z,3.10
2018-07-06T11:54:35.811Z,2.80
2018-07-06T11:57:06.752Z,2.90
2018-07-06T11:59:36.493Z,3.00
2018-07-06T12:02:07.164Z,2.70
2018-07-06T12:04:36.223Z,3.00
2018-07-06T12:07:05.058Z,2.80
2018-07-06T12:09:34.187Z,2.93
2018-07-06T12:12:03.326Z,3.17
2018-07-06T12:14:31.778Z,2.80
2018-07-06T12:17:01.727Z,3.00
2018-07-06T12:19:35.502Z,3.27
2018-07-06T12:22:04.654Z,3.33
2018-07-06T12:24:34.166Z,2.90
2018-07-06T12:27:04.427Z,3.40
2018-07-06T12:29:34.563Z,3.37
2018-07-06T12:32:03.909Z,3.17
2018-07-06T12:34:33.224Z,2.90
2018-07-06T12:37:02.988Z,3.20
2018-07-06T12:39:33.544Z,3.00
2018-07-06T12:42:02.039Z,3.27
2018-07-06T12:44:32.145Z,2.90
2018-07-06T12:47:01.046Z,2.90
2018-07-06T12:49:33.670Z,3.10
2018-07-06T12:52:02.554Z,3.43
2018-07-06T12:54:31.377Z,3.73
2018-07-06T12:57:00.969Z,3.53
2018-07-06T12:59:30.659Z,3.40
2018-07-06T13:02:00.644Z,3.83
2018-07-06T13:04:30.809Z,4.00
2018-07-06T13:07:00.950Z,4.23
2018-07-06T13:09:29.309Z,4.00
2018-07-06T13:11:59.739Z,3.87
2018-07-06T13:14:31.559Z,3.70
2018-07-06T13:17:00.147Z,4.20
2018-07-06T13:19:29.887Z,4.00
2018-07-06T13:22:01.741Z,4.07
2018-07-06T13:24:30.998Z,4.30
2018-07-06T13:27:00.459Z,4.10
2018-07-06T13:29:30.811Z,4.67
2018-07-06T13:32:00.660Z,4.17
2018-07-06T13:34:30.051Z,4.83
2018-07-06T13:36:59.059Z,4.50
2018-07-06T13:39:29.311Z,4.20
2018-07-06T13:41:58.702Z,4.33
2018-07-06T13:44:28.296Z,4.33
2018-07-06T13:46:57.731Z,4.30
2018-07-06T13:49:26.720Z,4.27
2018-07-06T13:51:55.286Z,4.50
2018-07-06T13:54:23.748Z,4.17
2018-07-06T13:56:52.082Z,3.93
2018-07-06T13:59:20.518Z,3.90
2018-07-06T14:01:49.807Z,3.67
2018-07-06T14:04:18.448Z,3.93
2018-07-06T14:06:48.729Z,4.20
2018-07-06T14:09:17.006Z,3.53
2018-07-06T14:11:46.523Z,3.77
2018-07-06T14:14:15.505Z,3.60
2018-07-06T14:16:44.555Z,3.30
2018-07-06T14:19:13.661Z,3.70
2018-07-06T14:21:43.886Z,3.60
2018-07-06T14:24:14.220Z,3.07
2018-07-06T14:26:43.422Z,2.80
2018-07-06T14:29:12.255Z,3.03
2018-07-06T14:31:41.411Z,2.93
2018-07-06T14:34:11.489Z,3.10
2018-07-06T14:36:39.850Z,2.83
2018-07-06T14:39:09.398Z,2.77
2018-07-06T14:41:38.954Z,3.00
2018-07-06T14:44:08.906Z,3.07
2018-07-06T14:46:37.157Z,3.43
2018-07-06T14:49:06.251Z,3.37
2018-07-06T14:51:34.555Z,3.10
2018-07-06T14:54:03.597Z,3.30
2018-07-06T14:56:31.924Z,2.90
2018-07-06T14:59:01.060Z,3.00
2018-07-06T15:01:30.913Z,3.00
2018-07-06T15:04:01.309Z,2.70
2018-07-06T15:06:29.891Z,2.80
2018-07-06T15:08:58.241Z,2.57
2018-07-06T15:11:26.641Z,3.40
2018-07-06T15:13:55.217Z,3.63
2018-07-06T15:16:24.688Z,3.93
2018-07-06T15:18:53.106Z,4.10
2018-07-06T15:21:21.807Z,5.00
2018-07-06T15:23:51.013Z,4.60
2018-07-06T15:26:22.205Z,4.83
2018-07-06T15:28:51.342Z,4.50
2018-07-06T15:31:20.561Z,4.20
2018-07-06T15:33:51.198Z,4.37
2018-07-06T15:36:20.182Z,3.70
2018-07-06T15:38:49.012Z,3.43
2018-07-06T15:41:17.814Z,3.90
2018-07-06T15:43:46.147Z,3.77
2018-07-06T15:46:14.739Z,4.27
2018-07-06T15:48:43.872Z,4.40
2018-07-06T15:51:12.318Z,4.27
2018-07-06T15:53:40.954Z,4.70
2018-07-06T15:56:09.770Z,4.20
2018-07-06T15:58:39.371Z,4.70
2018-07-06T16:01:09.136Z,4.13
2018-07-06T16:03:38.007Z,4.60
2018-07-06T16:06:07.704Z,4.20
2018-07-06T16:08:36.802Z,4.30
2018-07-06T16:11:10.454Z,4.47
2018-07-06T16:13:38.988Z,4.17
2018-07-06T16:16:08.690Z,4.33
2018-07-06T16:18:37.674Z,4.03
2018-07-06T16:21:06.754Z,4.30
2018-07-06T16:23:35.364Z,4.10
2018-07-06T16:26:03.670Z,4.03
2018-07-06T16:28:32.262Z,4.20
2018-07-06T16:31:01.478Z,4.20
2018-07-06T16:33:30.729Z,4.33
2018-07-06T16:35:59.847Z,3.90
2018-07-06T16:38:29.372Z,4.13
2018-07-06T16:40:58.555Z,4.17
2018-07-06T16:43:26.925Z,3.87
2018-07-06T16:45:56.001Z,4.00
2018-07-06T16:48:26.302Z,4.00
2018-07-06T16:50:54.740Z,3.70
2018-07-06T16:53:23.906Z,3.90
2018-07-06T16:55:53.062Z,3.63
2018-07-06T16:58:21.769Z,3.80
2018-07-06T17:00:50.158Z,4.20
2018-07-06T17:03:19.422Z,3.90
2018-07-06T17:05:48.793Z,3.80
2018-07-06T17:08:18.198Z,3.90
2018-07-06T17:10:47.398Z,3.80
2018-07-06T17:13:16.484Z,3.80
2018-07-06T17:15:46.426Z,4.07
2018-07-06T17:18:15.160Z,3.93
2018-07-06T17:20:43.559Z,4.00
2018-07-06T17:23:13.567Z,3.87
2018-07-06T17:25:41.877Z,4.07
2018-07-06T17:28:19.572Z,4.13
2018-07-06T17:30:50.617Z,3.73
2018-07-06T17:33:22.407Z,3.90
2018-07-06T17:35:50.588Z,3.60
2018-07-06T17:38:19.365Z,3.60
2018-07-06T17:40:50.583Z,3.87
2018-07-06T17:43:18.954Z,3.77
2018-07-06T17:45:48.449Z,3.87
2018-07-06T17:48:20.191Z,4.07
2018-07-06T17:50:48.611Z,4.37
2018-07-06T17:53:18.054Z,3.70
2018-07-06T17:55:46.422Z,3.70
2018-07-06T17:58:14.703Z,3.90
2018-07-06T18:00:43.683Z,3.90
2018-07-06T18:03:13.849Z,4.20
2018-07-06T18:05:42.132Z,4.00
2018-07-06T18:08:11.831Z,4.13
2018-07-06T18:10:41.223Z,4.27
2018-07-06T18:13:09.539Z,4.07
2018-07-06T18:15:37.925Z,4.13
2018-07-06T18:18:06.228Z,4.17
2018-07-06T18:20:34.556Z,4.03
2018-07-06T18:23:03.337Z,4.60
2018-07-06T18:25:32.532Z,4.30
2018-07-06T18:28:02.222Z,4.17
2018-07-06T18:30:30.883Z,3.90
2018-07-06T18:33:00.065Z,4.23
2018-07-06T18:35:28.402Z,3.90
2018-07-06T18:38:00.667Z,4.03
2018-07-06T18:40:29.957Z,4.10
2018-07-06T18:43:01.346Z,4.67
2018-07-06T18:45:32.971Z,4.53
2018-07-06T18:48:01.517Z,4.23
2018-07-06T18:50:30.115Z,4.43
2018-07-06T18:52:59.177Z,4.80
2018-07-06T18:55:28.050Z,4.83
2018-07-06T18:57:57.563Z,4.53
2018-07-06T19:00:27.309Z,4.13
2018-07-06T19:02:56.481Z,4.13
2018-07-06T19:05:26.294Z,4.77
2018-07-06T19:07:59.207Z,4.40
2018-07-06T19:10:28.264Z,4.73
2018-07-06T19:12:57.115Z,4.93
2018-07-06T19:15:26.273Z,4.53
2018-07-06T19:17:54.858Z,4.87
2018-07-06T19:20:23.687Z,4.37
2018-07-06T19:22:52.954Z,4.50
2018-07-06T19:25:21.234Z,4.50
2018-07-06T19:27:49.506Z,4.53
2018-07-06T19:30:17.855Z,4.50
2018-07-06T19:32:46.106Z,4.47
2018-07-06T19:35:14.382Z,4.73
2018-07-06T19:37:42.685Z,4.67
2018-07-06T19:40:10.954Z,4.47
2018-07-06T19:42:39.766Z,4.53
2018-07-06T19:45:08.097Z,4.77
2018-07-06T19:47:36.414Z,4.60
2018-07-06T19:50:04.793Z,4.97
2018-07-06T19:52:33.106Z,5.33
2018-07-06T19:55:01.440Z,4.60
2018-07-06T19:57:33.028Z,4.73
2018-07-06T20:00:03.762Z,5.40
2018-07-06T20:02:33.380Z,8.93
2018-07-06T20:05:04.305Z,5.13
2018-07-06T20:07:36.144Z,5.57
2018-07-06T20:10:09.478Z,5.23
2018-07-06T20:12:38.075Z,5.10
2018-07-06T20:15:14.261Z,5.03
2018-07-06T20:17:46.080Z,5.03
2018-07-06T20:20:17.202Z,5.17
2018-07-06T20:22:49.805Z,5.00
2018-07-06T20:25:18.164Z,5.50
2018-07-06T20:27:46.470Z,5.00
2018-07-06T20:30:15.214Z,5.13
2018-07-06T20:32:43.717Z,5.03
2018-07-06T20:35:16.805Z,5.37
2018-07-06T20:37:45.159Z,5.33
2018-07-06T20:40:13.438Z,5.20
2018-07-06T20:42:49.039Z,4.93
2018-07-06T20:45:23.488Z,5.50
2018-07-06T20:47:54.991Z,5.30
2018-07-06T20:50:32.228Z,5.63
2018-07-06T20:53:03.310Z,5.97
2018-07-06T20:55:32.491Z,5.40
2018-07-06T20:58:02.461Z,5.63
2018-07-06T21:00:36.648Z,6.30
2018-07-06T21:03:06.702Z,6.17
2018-07-06T21:05:35.514Z,5.87
2018-07-06T21:08:08.097Z,5.87
2018-07-06T21:10:36.700Z,5.90
2018-07-06T21:13:06.793Z,6.07
2018-07-06T21:15:35.678Z,6.23
2018-07-06T21:18:05.726Z,6.13
2018-07-06T21:20:35.080Z,6.47
2018-07-06T21:23:06.392Z,6.50
2018-07-06T21:25:34.729Z,5.90
2018-07-06T21:28:04.918Z,5.87
2018-07-06T21:30:39.189Z,5.80
2018-07-06T21:33:08.140Z,6.00
2018-07-06T21:35:37.214Z,6.20
2018-07-06T21:38:06.006Z,6.53
2018-07-06T21:40:34.782Z,6.43
2018-07-06T21:43:03.129Z,6.40
2018-07-06T21:45:32.114Z,6.10
2018-07-06T21:48:00.708Z,6.13
2018-07-06T21:50:29.024Z,6.47
2018-07-06T21:52:57.282Z,6.77
2018-07-06T21:55:26.554Z,6.60
2018-07-06T21:57:55.703Z,6.60
2018-07-06T22:00:36.345Z,6.20
2018-07-06T22:03:05.299Z,6.00
2018-07-06T22:05:34.275Z,6.27
2018-07-06T22:08:05.968Z,5.70
2018-07-06T22:10:37.728Z,5.87
2018-07-06T22:13:09.873Z,5.97
2018-07-06T22:15:42.033Z,6.23
2018-07-06T22:18:11.488Z,5.80
2018-07-06T22:20:41.585Z,5.80
2018-07-06T22:23:11.658Z,6.00
2018-07-06T22:25:45.982Z,6.10
2018-07-06T22:28:19.553Z,6.20
2018-07-06T22:30:48.468Z,5.70
2018-07-06T22:33:18.526Z,5.67
2018-07-06T22:35:46.959Z,6.10
2018-07-06T22:38:16.101Z,5.80
2018-07-06T22:40:48.998Z,5.47
2018-07-06T22:43:18.438Z,5.73
2018-07-06T22:45:49.600Z,5.83
2018-07-06T22:48:18.133Z,5.80
2018-07-06T22:50:48.282Z,5.90
2018-07-06T22:53:17.178Z,5.60
2018-07-06T22:55:45.452Z,5.87
2018-07-06T22:58:15.474Z,6.60
2018-07-06T23:00:44.533Z,5.90
2018-07-06T23:03:16.222Z,5.80
2018-07-06T23:05:45.223Z,6.20
2018-07-06T23:08:15.746Z,5.87
2018-07-06T23:10:47.440Z,6.00
2018-07-06T23:13:19.384Z,5.40
2018-07-06T23:15:48.610Z,6.03
2018-07-06T23:18:17.141Z,5.63
2018-07-06T23:20:45.963Z,5.77
2018-07-06T23:23:15.930Z,5.90
2018-07-06T23:25:49.368Z,6.27
2018-07-06T23:28:19.315Z,5.73
2018-07-06T23:30:48.146Z,6.00
2018-07-06T23:33:16.710Z,6.07
2018-07-06T23:35:45.092Z,6.20
2018-07-06T23:38:15.208Z,5.73
2018-07-06T23:40:44.856Z,6.20
2018-07-06T23:43:15.009Z,6.20
2018-07-06T23:45:45.670Z,5.90
2018-07-06T23:48:16.289Z,6.33
2018-07-06T23:50:45.410Z,6.00
2018-07-06T23:53:14.459Z,6.07
2018-07-06T23:55:46.932Z,6.00
2018-07-06T23:58:16.446Z,6.10
